Time;durP1;ratioP1;P1;durP2;ratioP2;P2;SDS_P1;SDS_P2;PMS_P1;PMS_P2;Temp;Humidity;BMP_temperature;BMP_pressure;BME280_temperature;BME280_humidity;BME280_pressure;Samples;Min_cycle;Max_cycle;Signal;HPM_P1;HPM_P2
2022/08/30 00:02:05;;;;;;;16.35;10.75;;;;;;;20.70;nan;100646.16;5064280;28;20108;-67
2022/08/30 00:04:31;;;;;;;21.17;10.77;;;;;;;20.65;nan;100645.44;5062515;28;20456;-67
2022/08/30 00:06:56;;;;;;;17.95;10.45;;;;;;;20.62;nan;100630.75;5057142;28;20012;-68
2022/08/30 00:09:22;;;;;;;14.77;10.00;;;;;;;20.69;nan;100633.09;5061765;28;20482;-73
2022/08/30 00:11:48;;;;;;;14.27;10.05;;;;;;;20.47;nan;100591.59;5064511;28;20025;-73
2022/08/30 00:14:14;;;;;;;18.55;10.35;;;;;;;20.67;nan;100624.56;5071043;28;20053;-73
2022/08/30 00:16:40;;;;;;;23.65;9.88;;;;;;;20.62;nan;100605.88;5070558;28;20443;-66
2022/08/30 00:19:05;;;;;;;14.20;9.68;;;;;;;20.50;nan;100585.66;5069086;28;20103;-67
2022/08/30 00:21:31;;;;;;;15.43;10.38;;;;;;;20.71;nan;100622.88;5069871;28;20386;-67
2022/08/30 00:23:57;;;;;;;14.25;9.50;;;;;;;20.67;nan;100617.31;5069249;28;20052;-66
2022/08/30 00:26:22;;;;;;;13.65;9.00;;;;;;;20.63;nan;100599.44;5065605;28;20025;-67
2022/08/30 00:28:47;;;;;;;10.75;8.00;;;;;;;20.54;nan;100608.09;5068534;28;20020;-73
2022/08/30 00:31:13;;;;;;;11.32;8.30;;;;;;;20.68;nan;100626.91;5054805;28;20029;-74
2022/08/30 00:33:38;;;;;;;10.77;7.68;;;;;;;20.66;nan;100630.97;5063710;28;20028;-74
2022/08/30 00:36:04;;;;;;;11.05;8.05;;;;;;;20.67;nan;100643.28;5069830;28;20382;-74
2022/08/30 00:38:30;;;;;;;11.60;7.85;;;;;;;20.60;nan;100620.34;5064538;28;20036;-74
2022/08/30 00:40:56;;;;;;;12.02;8.05;;;;;;;20.60;nan;100612.31;5069662;28;20059;-67
2022/08/30 00:43:29;;;;;;;11.18;7.78;;;;;;;20.56;nan;100611.28;5067500;28;20439;-74
2022/08/30 00:45:55;;;;;;;12.93;7.85;;;;;;;20.66;nan;100625.63;5064879;28;20418;-75
2022/08/30 00:48:21;;;;;;;11.02;8.18;;;;;;;20.65;nan;100643.56;5063779;28;20020;-74
2022/08/30 00:50:56;;;;;;;9.30;7.85;;;;;;;20.60;nan;100639.06;5065613;28;20386;-73
2022/08/30 00:53:25;;;;;;;12.15;7.93;;;;;;;20.54;nan;100634.84;5069951;28;20021;-74
2022/08/30 00:55:52;;;;;;;12.32;7.85;;;;;;;20.54;nan;100637.50;5064699;28;20067;-73
2022/08/30 00:58:23;;;;;;;12.30;7.63;;;;;;;20.52;nan;100631.66;5065656;28;20035;-74
2022/08/30 01:00:52;;;;;;;10.63;8.02;;;;;;;20.52;nan;100638.84;5062710;28;20027;-75
2022/08/30 01:03:18;;;;;;;10.68;8.00;;;;;;;20.47;nan;100631.72;5065134;28;20024;-67
2022/08/30 01:05:45;;;;;;;9.63;7.75;;;;;;;20.18;nan;100587.09;5063454;28;20024;-67
2022/08/30 01:08:10;;;;;;;8.88;7.53;;;;;;;20.45;nan;100635.72;5052558;28;20034;-67
2022/08/30 01:10:37;;;;;;;11.90;8.32;;;;;;;20.37;nan;100624.56;5066256;28;20709;-67
2022/08/30 01:13:03;;;;;;;9.95;7.72;;;;;;;20.48;nan;100630.63;5064547;28;20027;-67
2022/08/30 01:15:31;;;;;;;10.25;8.25;;;;;;;20.50;nan;100641.84;5067560;28;20044;-67
2022/08/30 01:17:57;;;;;;;11.68;8.25;;;;;;;20.48;nan;100635.97;5065490;28;20040;-74
2022/08/30 01:20:28;;;;;;;13.65;8.38;;;;;;;20.38;nan;100628.84;5052126;28;20108;-74
2022/08/30 01:22:53;;;;;;;16.85;8.82;;;;;;;20.37;nan;100624.56;5065147;28;20466;-73
2022/08/30 01:25:23;;;;;;;10.47;8.13;;;;;;;20.37;nan;100627.25;5066521;28;20032;-74
2022/08/30 01:28:03;;;;;;;12.35;8.20;;;;;;;20.36;nan;100624.88;5070127;28;20364;-73
2022/08/30 01:30:30;;;;;;;12.27;8.82;;;;;;;20.35;nan;100626.75;5048749;28;20029;-74
2022/08/30 01:33:01;;;;;;;11.10;8.50;;;;;;;20.29;nan;100611.03;5066521;28;20060;-74
2022/08/30 01:35:55;;;;;;;11.98;8.55;;;;;;;20.36;nan;100620.31;5063426;28;20033;-73
2022/08/30 01:38:27;;;;;;;13.52;8.98;;;;;;;20.28;nan;100596.06;5065404;28;20020;-73
2022/08/30 01:40:58;;;;;;;13.85;8.57;;;;;;;20.38;nan;100612.03;5063305;28;20092;-72
2022/08/30 01:43:24;;;;;;;12.40;8.00;;;;;;;20.36;nan;100611.50;5063988;28;20055;-73
2022/08/30 01:45:49;;;;;;;15.10;8.85;;;;;;;20.28;nan;100588.88;5062033;28;20090;-72
2022/08/30 01:48:15;;;;;;;14.60;9.45;;;;;;;20.35;nan;100600.03;5066619;28;20407;-74
2022/08/30 01:50:41;;;;;;;14.25;9.57;;;;;;;20.38;nan;100595.97;5065211;28;20024;-73
2022/08/30 01:53:07;;;;;;;12.30;9.20;;;;;;;20.31;nan;100601.66;5065661;28;20502;-73
2022/08/30 01:55:32;;;;;;;11.95;8.48;;;;;;;20.35;nan;100610.72;5062943;28;20471;-72
2022/08/30 01:57:58;;;;;;;14.45;8.43;;;;;;;20.33;nan;100612.09;5049341;28;20051;-74
2022/08/30 02:00:23;;;;;;;13.32;8.85;;;;;;;20.36;nan;100616.84;5046263;28;20021;-73
2022/08/30 02:02:49;;;;;;;13.60;8.90;;;;;;;20.28;nan;100602.22;5060611;28;20060;-74
2022/08/30 02:05:15;;;;;;;11.68;8.95;;;;;;;20.32;nan;100607.81;5051091;28;20028;-73
2022/08/30 02:07:40;;;;;;;12.98;9.15;;;;;;;20.32;nan;100611.25;5067712;28;20025;-74
2022/08/30 02:10:06;;;;;;;12.13;8.75;;;;;;;20.28;nan;100604.91;5066642;28;20031;-73
2022/08/30 02:12:33;;;;;;;13.73;8.85;;;;;;;20.20;nan;100592.16;5067011;28;20029;-74
2022/08/30 02:14:59;;;;;;;13.48;9.63;;;;;;;20.24;nan;100601.19;5042618;28;20041;-74
2022/08/30 02:17:25;;;;;;;11.98;7.97;;;;;;;20.10;nan;100587.72;5044666;28;20679;-74
2022/08/30 02:19:51;;;;;;;12.13;9.10;;;;;;;20.28;nan;100609.44;5043353;28;20025;-74
2022/08/30 02:22:17;;;;;;;10.25;8.25;;;;;;;20.26;nan;100606.28;5047281;28;20031;-73
2022/08/30 02:24:42;;;;;;;13.38;9.15;;;;;;;20.22;nan;100599.91;5045539;28;20025;-74
2022/08/30 02:27:11;;;;;;;12.05;8.48;;;;;;;20.21;nan;100599.09;5046926;28;20032;-74
2022/08/30 02:29:36;;;;;;;10.95;8.75;;;;;;;20.21;nan;100607.13;5045029;28;20137;-75
2022/08/30 02:32:02;;;;;;;11.82;8.93;;;;;;;20.19;nan;100609.28;5039661;28;20457;-72
2022/08/30 02:34:27;;;;;;;10.93;8.63;;;;;;;20.22;nan;100600.69;5043485;28;20043;-73
2022/08/30 02:36:53;;;;;;;73.55;43.20;;;;;;;20.16;nan;100589.25;5045772;28;20053;-74
2022/08/30 02:39:18;;;;;;;23.80;15.98;;;;;;;20.36;nan;100590.09;5044668;28;20028;-73
2022/08/30 02:41:44;;;;;;;12.80;10.20;;;;;;;20.35;nan;100605.38;5048229;28;20548;-73
2022/08/30 02:44:10;;;;;;;14.65;9.15;;;;;;;20.18;nan;100591.63;5044931;28;20021;-74
2022/08/30 02:46:36;;;;;;;13.70;9.10;;;;;;;20.16;nan;100599.13;5045084;28;20020;-72
2022/08/30 02:49:02;;;;;;;10.32;8.40;;;;;;;20.19;nan;100602.06;5055598;28;20025;-72
2022/08/30 02:51:27;;;;;;;11.43;8.68;;;;;;;20.16;nan;100602.63;5047135;28;20025;-68
2022/08/30 02:53:53;;;;;;;15.25;8.80;;;;;;;20.10;nan;100603.75;5043628;28;20489;-67
2022/08/30 02:56:18;;;;;;;12.25;8.80;;;;;;;20.11;nan;100605.38;5040848;28;20021;-66
2022/08/30 02:58:45;;;;;;;10.75;8.32;;;;;;;20.08;nan;100611.25;5041564;28;20455;-66
2022/08/30 03:01:12;;;;;;;12.63;8.88;;;;;;;20.07;nan;100615.03;5040780;28;20029;-66
2022/08/30 03:03:39;;;;;;;12.27;8.98;;;;;;;20.06;nan;100617.97;5057081;28;20475;-66
2022/08/30 03:06:05;;;;;;;11.27;8.68;;;;;;;19.98;nan;100611.38;5044243;28;20107;-66
2022/08/30 03:08:31;;;;;;;13.32;9.07;;;;;;;19.98;nan;100624.72;5044519;28;20111;-67
2022/08/30 03:10:57;;;;;;;14.90;10.30;;;;;;;19.80;nan;100620.06;5045546;28;20471;-67
2022/08/30 03:13:23;;;;;;;17.73;9.30;;;;;;;19.72;nan;100619.59;5046512;28;20028;-67
2022/08/30 03:15:49;;;;;;;13.65;8.63;;;;;;;19.73;nan;100626.56;5056796;28;20052;-73
2022/08/30 03:18:21;;;;;;;13.05;8.75;;;;;;;19.72;nan;100627.63;5061222;28;20031;-73
2022/08/30 03:20:48;;;;;;;14.82;9.00;;;;;;;19.62;nan;100617.00;5068010;28;20028;-74
2022/08/30 03:23:14;;;;;;;12.43;8.63;;;;;;;19.69;nan;100641.56;5049146;28;20041;-74
2022/08/30 03:25:40;;;;;;;13.48;9.10;;;;;;;19.58;nan;100636.53;5067815;28;20020;-74
2022/08/30 03:28:06;;;;;;;13.70;8.77;;;;;;;19.59;nan;100649.63;5063516;28;20150;-72
2022/08/30 03:30:32;;;;;;;17.33;10.23;;;;;;;19.55;nan;100644.03;5049235;28;20063;-73
2022/08/30 03:32:58;;;;;;;15.38;9.40;;;;;;;19.52;nan;100643.81;5042628;28;20028;-73
2022/08/30 03:35:23;;;;;;;11.75;8.90;;;;;;;19.49;nan;100644.34;5050502;28;20017;-72
2022/08/30 03:37:49;;;;;;;13.82;9.32;;;;;;;19.24;nan;100613.28;5060184;28;20055;-73
2022/08/30 03:40:17;;;;;;;13.77;9.80;;;;;;;19.43;nan;100646.25;5063282;28;20021;-73
2022/08/30 03:42:44;;;;;;;15.10;9.50;;;;;;;19.45;nan;100651.31;5060414;28;20034;-73
2022/08/30 03:45:10;;;;;;;15.13;9.07;;;;;;;19.43;nan;100648.94;5050463;28;20470;-72
2022/08/30 03:47:36;;;;;;;14.98;10.30;;;;;;;19.38;nan;100648.97;5062753;28;20033;-73
2022/08/30 03:50:06;;;;;;;13.35;10.15;;;;;;;19.32;nan;100652.72;5065326;28;20044;-73
2022/08/30 03:52:31;;;;;;;13.13;10.55;;;;;;;19.22;nan;100637.56;5043643;28;20025;-71
2022/08/30 03:54:57;;;;;;;15.60;10.55;;;;;;;19.23;nan;100652.53;5067888;28;20035;-67
2022/08/30 03:57:22;;;;;;;19.35;10.90;;;;;;;19.21;nan;100649.34;5045690;28;20044;-67
2022/08/30 04:00:12;;;;;;;20.42;11.13;;;;;;;19.18;nan;100644.56;5068496;28;20016;-73
2022/08/30 04:02:36;;;;;;;19.17;10.10;;;;;;;19.08;nan;100632.06;5048892;28;20048;-66
2022/08/30 04:05:03;;;;;;;16.50;10.93;;;;;;;19.08;nan;100632.06;5064903;28;20035;-72
2022/08/30 04:07:28;;;;;;;17.52;10.85;;;;;;;19.16;nan;100637.91;5046776;28;20028;-72
2022/08/30 04:09:53;;;;;;;20.80;10.98;;;;;;;19.23;nan;100646.41;5061824;28;20027;-71
2022/08/30 04:12:19;;;;;;;14.27;10.18;;;;;;;19.27;nan;100648.22;5064353;28;20025;-71
2022/08/30 04:14:44;;;;;;;17.67;10.05;;;;;;;19.31;nan;100651.94;5066109;28;20048;-71
2022/08/30 04:17:10;;;;;;;22.33;10.02;;;;;;;19.35;nan;100644.19;5066822;28;20463;-66
2022/08/30 04:19:35;;;;;;;22.75;10.75;;;;;;;19.42;nan;100657.19;5067071;28;20020;-66
2022/08/30 04:22:00;;;;;;;18.90;10.90;;;;;;;19.41;nan;100655.63;5068839;28;20035;-66
2022/08/30 04:24:26;;;;;;;17.15;10.20;;;;;;;19.46;nan;100668.94;5066149;28;20463;-67
2022/08/30 04:26:51;;;;;;;13.00;9.80;;;;;;;19.43;nan;100667.63;5066403;28;20424;-70
2022/08/30 04:29:17;;;;;;;13.88;9.60;;;;;;;19.44;nan;100682.59;5067936;28;20043;-72
2022/08/30 04:31:44;;;;;;;19.77;9.48;;;;;;;19.45;nan;100683.38;5060971;28;20020;-72
2022/08/30 04:34:11;;;;;;;17.88;9.65;;;;;;;19.42;nan;100686.56;5061474;28;20113;-72
2022/08/30 04:36:36;;;;;;;16.48;9.55;;;;;;;19.42;nan;100681.25;5057742;28;20032;-72
2022/08/30 04:39:02;;;;;;;16.20;11.00;;;;;;;19.46;nan;100690.31;5065120;28;20535;-71
2022/08/30 04:41:28;;;;;;;31.35;16.00;;;;;;;19.40;nan;100678.88;5039556;28;20029;-72
2022/08/30 04:43:53;;;;;;;36.00;14.68;;;;;;;19.40;nan;100678.88;5046287;28;20086;-68
2022/08/30 04:46:19;;;;;;;33.92;15.80;;;;;;;19.38;nan;100683.69;5067480;28;20451;-66
2022/08/30 04:48:45;;;;;;;30.05;15.15;;;;;;;19.40;nan;100691.44;5062610;28;20032;-68
2022/08/30 04:51:14;;;;;;;24.33;13.02;;;;;;;19.41;nan;100691.13;5068140;28;20019;-65
2022/08/30 04:53:41;;;;;;;19.85;12.48;;;;;;;19.37;nan;100689.28;5066090;28;20025;-71
2022/08/30 04:56:15;;;;;;;19.55;11.55;;;;;;;19.36;nan;100695.72;5049660;28;20032;-70
2022/08/30 04:58:41;;;;;;;27.48;10.93;;;;;;;19.34;nan;100694.09;5050340;28;20482;-70
2022/08/30 05:01:16;;;;;;;21.45;11.80;;;;;;;19.32;nan;100685.59;5069971;28;20422;-71
2022/08/30 05:03:41;;;;;;;17.27;11.68;;;;;;;19.37;nan;100691.97;5067804;28;20482;-72
2022/08/30 05:06:09;;;;;;;22.83;11.90;;;;;;;19.39;nan;100703.97;5069443;28;20032;-72
2022/08/30 05:08:35;;;;;;;24.83;12.00;;;;;;;19.31;nan;100694.66;5070573;28;20016;-68
2022/08/30 05:11:04;;;;;;;20.52;11.65;;;;;;;19.43;nan;100702.34;5070054;28;20057;-67
2022/08/30 05:13:30;;;;;;;19.13;11.57;;;;;;;19.43;nan;100704.22;5068217;28;20056;-70
2022/08/30 05:15:56;;;;;;;22.27;12.43;;;;;;;19.29;nan;100678.13;5067868;28;20048;-67
2022/08/30 05:18:21;;;;;;;20.77;12.82;;;;;;;19.51;nan;100711.63;5052119;28;20020;-67
2022/08/30 05:20:47;;;;;;;18.70;12.18;;;;;;;19.44;nan;100692.44;5063380;28;20036;-67
2022/08/30 05:23:12;;;;;;;20.17;12.00;;;;;;;19.52;nan;100703.34;5067428;28;20021;-67
2022/08/30 05:25:40;;;;;;;24.55;12.85;;;;;;;19.57;nan;100701.72;5065040;28;20100;-67
2022/08/30 05:28:06;;;;;;;21.15;12.52;;;;;;;19.55;nan;100699.31;5063845;28;20202;-67
2022/08/30 05:30:34;;;;;;;22.50;12.82;;;;;;;19.62;nan;100702.50;5066889;28;20028;-67
2022/08/30 05:33:01;;;;;;;23.02;13.27;;;;;;;19.67;nan;100705.13;5063432;28;20403;-70
2022/08/30 05:35:27;;;;;;;20.70;12.57;;;;;;;19.71;nan;100705.41;5068087;28;20023;-71
2022/08/30 05:37:53;;;;;;;22.23;13.43;;;;;;;19.80;nan;100711.75;5045455;28;20025;-67
2022/08/30 05:40:20;;;;;;;20.58;12.73;;;;;;;19.88;nan;100721.03;5065867;28;20096;-67
2022/08/30 05:42:46;;;;;;;24.67;12.23;;;;;;;19.90;nan;100717.00;5051882;28;20161;-67
2022/08/30 05:45:13;;;;;;;18.90;12.40;;;;;;;20.00;nan;100721.47;5051261;28;20494;-67
2022/08/30 05:47:39;;;;;;;17.42;12.50;;;;;;;20.04;nan;100714.50;5051414;28;20462;-67
2022/08/30 05:50:06;;;;;;;19.33;12.40;;;;;;;20.11;nan;100714.97;5062877;28;20028;-67
2022/08/30 05:52:36;;;;;;;22.23;12.80;;;;;;;20.14;nan;100713.63;5063425;28;20033;-67
2022/08/30 05:55:03;;;;;;;18.60;12.15;;;;;;;20.20;nan;100712.47;5066240;28;20448;-68
2022/08/30 05:57:32;;;;;;;20.20;12.98;;;;;;;20.28;nan;100719.09;5062870;28;20029;-66
2022/08/30 05:59:59;;;;;;;18.00;12.60;;;;;;;20.29;nan;100713.47;5048159;28;20478;-67
2022/08/30 06:02:24;;;;;;;17.73;13.10;;;;;;;20.30;nan;100704.34;5065094;28;20086;-67
2022/08/30 06:04:50;;;;;;;19.58;12.25;;;;;;;20.38;nan;100708.31;5065573;28;20410;-67
2022/08/30 06:07:15;;;;;;;17.33;12.60;;;;;;;20.46;nan;100714.91;5069063;28;20048;-67
2022/08/30 06:09:41;;;;;;;17.67;12.88;;;;;;;20.49;nan;100707.09;5067908;28;20022;-67
2022/08/30 06:12:06;;;;;;;24.60;12.75;;;;;;;20.56;nan;100701.44;5067542;28;20117;-67
2022/08/30 06:14:32;;;;;;;22.85;11.77;;;;;;;20.64;nan;100708.06;5067139;28;20394;-67
2022/08/30 06:16:57;;;;;;;20.98;12.57;;;;;;;20.72;nan;100718.94;5050872;28;20051;-68
2022/08/30 06:19:22;;;;;;;21.63;12.65;;;;;;;20.69;nan;100706.13;5030976;28;20020;-69
2022/08/30 06:21:49;;;;;;;28.58;13.23;;;;;;;20.79;nan;100714.03;5069164;28;20017;-67
2022/08/30 06:24:16;;;;;;;17.60;12.32;;;;;;;20.87;nan;100717.16;5068667;28;20427;-68
2022/08/30 06:26:43;;;;;;;22.35;12.20;;;;;;;20.91;nan;100710.16;5068789;28;20062;-68
2022/08/30 06:29:11;;;;;;;22.23;12.95;;;;;;;20.97;nan;100711.69;5066109;28;20052;-67
2022/08/30 06:31:37;;;;;;;18.67;12.18;;;;;;;20.87;nan;100696.53;5051475;28;20462;-67
2022/08/30 06:34:04;;;;;;;19.55;12.20;;;;;;;21.02;nan;100714.28;5067085;28;20032;-67
2022/08/30 06:36:30;;;;;;;20.08;11.52;;;;;;;21.00;nan;100716.50;5067730;28;20407;-67
2022/08/30 06:38:57;;;;;;;17.92;11.82;;;;;;;21.04;nan;100712.13;5067082;28;20086;-67
2022/08/30 06:41:26;;;;;;;18.90;12.10;;;;;;;21.07;nan;100714.25;5068785;28;20425;-67
2022/08/30 06:43:52;;;;;;;15.85;12.02;;;;;;;21.10;nan;100715.56;5066169;28;20020;-67
2022/08/30 06:46:22;;;;;;;14.52;11.20;;;;;;;21.16;nan;100715.19;5066833;28;20485;-68
2022/08/30 06:48:47;;;;;;;18.23;11.35;;;;;;;21.21;nan;100714.31;5050921;28;20017;-67
2022/08/30 06:51:13;;;;;;;16.23;11.80;;;;;;;21.09;nan;100681.81;5069480;28;20351;-68
2022/08/30 06:53:39;;;;;;;20.60;11.70;;;;;;;21.32;nan;100706.97;5050910;28;20036;-68
2022/08/30 06:56:08;;;;;;;19.00;11.98;;;;;;;21.39;nan;100713.56;5065147;28;20024;-69
2022/08/30 06:58:35;;;;;;;15.60;11.68;;;;;;;21.49;nan;100719.88;5064942;28;20024;-67
2022/08/30 07:01:01;;;;;;;17.10;11.25;;;;;;;21.50;nan;100713.41;5069809;28;20363;-67
2022/08/30 07:03:27;;;;;;;17.63;10.70;;;;;;;21.58;nan;100712.78;5068445;28;20036;-66
2022/08/30 07:05:54;;;;;;;22.63;11.82;;;;;;;21.63;nan;100712.69;5048395;28;20028;-68
2022/08/30 07:08:22;;;;;;;19.52;10.90;;;;;;;21.58;nan;100694.81;5060800;28;21303;-68
2022/08/30 07:10:48;;;;;;;18.70;11.82;;;;;;;21.82;nan;100724.19;5065212;28;20024;-68
2022/08/30 07:13:14;;;;;;;14.48;11.75;;;;;;;21.88;nan;100722.22;5052961;28;20021;-68
2022/08/30 07:15:43;;;;;;;16.55;10.43;;;;;;;21.95;nan;100725.31;5065903;28;20513;-68
2022/08/30 07:20:55;;;;;;;16.13;9.95;;;;;;;22.07;nan;100724.88;5067944;28;20104;-68
2022/08/30 07:23:21;;;;;;;16.27;9.95;;;;;;;22.15;nan;100723.38;5066402;28;20438;-67
2022/08/30 07:25:46;;;;;;;15.55;9.50;;;;;;;22.21;nan;100724.94;5066070;28;20032;-68
2022/08/30 07:28:12;;;;;;;18.45;10.27;;;;;;;22.23;nan;100720.06;5047376;28;20050;-67
2022/08/30 07:30:39;;;;;;;22.52;11.10;;;;;;;22.18;nan;100704.81;5064481;28;20134;-67
2022/08/30 07:33:05;;;;;;;14.10;10.23;;;;;;;22.43;nan;100725.06;5066512;28;20024;-68
2022/08/30 07:35:30;;;;;;;19.80;10.77;;;;;;;22.50;nan;100722.00;5066048;28;20032;-67
2022/08/30 07:37:57;;;;;;;17.35;10.10;;;;;;;22.57;nan;100725.06;5066707;28;20020;-67
2022/08/30 07:40:22;;;;;;;21.73;9.60;;;;;;;22.51;nan;100699.44;5066799;28;20055;-68
2022/08/30 07:42:48;;;;;;;19.90;10.63;;;;;;;22.68;nan;100718.44;5065258;28;20105;-68
2022/08/30 07:45:13;;;;;;;17.63;9.93;;;;;;;22.75;nan;100711.84;5049671;28;20020;-67
2022/08/30 07:47:38;;;;;;;23.23;11.00;;;;;;;;;;5061850;28;20024;-67
2022/08/30 07:50:06;;;;;;;14.55;9.45;;;;;;;22.94;nan;100760.91;5066880;28;20119;-67
2022/08/30 07:52:31;;;;;;;16.63;9.68;;;;;;;23.04;nan;100682.81;5062201;28;20025;-68
2022/08/30 07:54:58;;;;;;;16.90;9.65;;;;;;;23.10;nan;100672.75;5065969;28;20035;-67
2022/08/30 07:57:24;;;;;;;15.43;10.18;;;;;;;23.16;nan;100690.34;5061412;28;20028;-66
2022/08/30 07:59:50;;;;;;;18.35;9.88;;;;;;;23.19;nan;100702.38;5066332;28;20502;-66
2022/08/30 08:02:16;;;;;;;16.80;10.20;;;;;;;23.25;nan;100695.78;5058870;28;20029;-68
2022/08/30 08:04:42;;;;;;;13.95;9.65;;;;;;;23.29;nan;100694.09;5065479;28;20031;-66
2022/08/30 08:07:08;;;;;;;13.90;9.52;;;;;;;23.35;nan;100727.84;5062648;28;20005;-67
2022/08/30 08:09:34;;;;;;;16.35;9.93;;;;;;;23.46;nan;100688.06;5067337;28;20032;-67
2022/08/30 08:12:02;;;;;;;16.55;10.70;;;;;;;23.47;nan;100674.34;5066603;28;20048;-67
2022/08/30 08:14:27;;;;;;;14.30;9.85;;;;;;;23.61;nan;100693.09;5060723;28;20043;-67
2022/08/30 08:16:53;;;;;;;16.10;9.77;;;;;;;23.66;nan;100678.75;5059982;28;20025;-66
2022/08/30 08:19:19;;;;;;;15.60;9.15;;;;;;;23.75;nan;100688.50;5067913;28;20040;-66
2022/08/30 08:21:44;;;;;;;19.05;9.48;;;;;;;23.84;nan;100706.56;5059515;28;20189;-67
2022/08/30 08:24:10;;;;;;;15.52;9.68;;;;;;;23.89;nan;100701.84;5061884;28;20017;-70
2022/08/30 08:26:37;;;;;;;11.68;9.70;;;;;;;23.99;nan;100682.78;5042816;28;20021;-70
2022/08/30 08:29:06;;;;;;;12.80;9.15;;;;;;;24.03;nan;100698.28;5061649;28;20024;-68
2022/08/30 08:31:31;;;;;;;14.52;9.65;;;;;;;24.00;nan;100675.50;5061651;28;20073;-68
2022/08/30 08:33:58;;;;;;;26.35;12.52;;;;;;;24.13;nan;100693.44;5060988;28;20028;-67
2022/08/30 08:36:24;;;;;;;10.50;8.73;;;;;;;24.18;nan;100705.97;5065606;28;20025;-67
2022/08/30 08:38:50;;;;;;;18.80;9.70;;;;;;;24.22;nan;100685.41;5066422;28;20028;-68
2022/08/30 08:41:39;;;;;;;15.07;8.73;;;;;;;24.28;nan;100686.88;5062557;28;20056;-67
2022/08/30 08:44:35;;;;;;;17.30;9.32;;;;;;;24.32;nan;100719.34;5063541;28;20051;-67
2022/08/30 08:47:29;;;;;;;13.82;8.95;;;;;;;24.34;nan;100712.53;5065373;28;20095;-68
2022/08/30 08:49:58;;;;;;;17.65;9.30;;;;;;;24.32;nan;100755.13;5065424;28;20063;-68
2022/08/30 08:55:21;;;;;;;18.60;9.55;;;;;;;24.36;nan;100694.19;5071092;28;20398;-67
2022/08/30 08:57:47;;;;;;;14.60;8.70;;;;;;;24.40;nan;100703.25;5067468;28;20455;-68
2022/08/30 09:00:14;;;;;;;13.30;8.90;;;;;;;24.43;nan;100701.81;5067629;28;20043;-67
2022/08/30 09:02:42;;;;;;;16.33;8.85;;;;;;;;;;5068861;28;20041;-67
2022/08/30 09:05:11;;;;;;;13.63;8.60;;;;;;;24.50;nan;100693.34;5067622;28;20039;-67
2022/08/30 09:07:40;;;;;;;13.35;8.65;;;;;;;24.53;nan;100692.69;5047891;28;20036;-68
2022/08/30 09:10:07;;;;;;;14.63;8.75;;;;;;;24.55;nan;100712.03;5068309;28;20028;-68
2022/08/30 09:12:33;;;;;;;13.27;8.23;;;;;;;24.58;nan;100763.34;5062305;28;20033;-68
2022/08/30 09:15:09;;;;;;;11.90;8.38;;;;;;;24.69;nan;100709.25;5068965;28;20044;-67
2022/08/30 09:17:54;;;;;;;11.27;8.45;;;;;;;24.72;nan;100711.28;5067388;28;20040;-68
2022/08/30 09:20:28;;;;;;;16.77;8.75;;;;;;;24.74;nan;100730.63;5067677;28;20024;-68
2022/08/30 09:22:54;;;;;;;17.45;8.18;;;;;;;24.81;nan;100707.53;5068115;28;20089;-67
2022/08/30 09:25:27;;;;;;;12.45;8.55;;;;;;;24.83;nan;100699.91;5069330;28;20020;-67
2022/08/30 09:27:54;;;;;;;18.38;9.98;;;;;;;24.84;nan;100679.16;5068222;28;20502;-69
2022/08/30 09:30:20;;;;;;;10.88;9.10;;;;;;;24.92;nan;100707.22;5049545;28;20021;-68
2022/08/30 09:32:53;;;;;;;14.25;9.82;;;;;;;24.95;nan;100685.84;5069328;28;20371;-69
2022/08/30 09:35:24;;;;;;;16.95;9.38;;;;;;;24.96;nan;100687.41;5065268;28;20057;-67
2022/08/30 09:38:03;;;;;;;13.85;10.00;;;;;;;24.93;nan;100704.22;5070485;28;20490;-67
2022/08/30 09:40:37;;;;;;;14.13;9.57;;;;;;;24.89;nan;100705.94;5048968;28;20036;-67
2022/08/30 09:43:18;;;;;;;12.27;9.65;;;;;;;24.96;nan;100694.72;5070145;28;20603;-69
2022/08/30 09:45:48;;;;;;;12.07;9.32;;;;;;;25.01;nan;100737.66;5067294;28;20028;-68
2022/08/30 09:48:20;;;;;;;22.92;9.98;;;;;;;25.01;nan;100660.31;5066039;28;20688;-68
2022/08/30 09:50:55;;;;;;;11.98;8.93;;;;;;;25.04;nan;100665.09;5065112;28;20033;-68
2022/08/30 09:53:30;;;;;;;15.50;10.05;;;;;;;25.12;nan;100686.97;5065789;28;20032;-67
2022/08/30 09:56:08;;;;;;;14.73;10.00;;;;;;;25.14;nan;100673.97;5069865;28;20028;-68
2022/08/30 09:58:39;;;;;;;14.87;9.63;;;;;;;25.19;nan;100687.31;5068510;28;20028;-68
2022/08/30 10:01:20;;;;;;;12.20;9.27;;;;;;;25.21;nan;100626.59;5068016;28;20093;-67
2022/08/30 10:04:17;;;;;;;13.70;9.40;;;;;;;25.29;nan;100656.56;5038363;28;20406;-66
2022/08/30 10:06:54;;;;;;;15.60;8.60;;;;;;;25.43;nan;100662.59;5067984;28;20028;-67
2022/08/30 10:09:32;;;;;;;12.73;9.15;;;;;;;25.54;nan;100657.66;5064711;28;20023;-68
2022/08/30 10:11:58;;;;;;;13.43;9.55;;;;;;;25.62;nan;100668.44;5045343;28;20426;-68
2022/08/30 10:14:35;;;;;;;13.48;8.93;;;;;;;25.66;nan;100682.84;5066327;28;20045;-68
2022/08/30 10:17:14;;;;;;;17.98;9.45;;;;;;;25.60;nan;100673.34;5065196;28;20048;-69
2022/08/30 10:19:52;;;;;;;;;;;;;;;25.65;nan;100650.81;5051933;28;20638;-68
2022/08/30 10:22:47;;;;;;;14.57;8.82;;;;;;;25.62;nan;100643.34;5067850;28;20392;-69
2022/08/30 10:25:21;;;;;;;13.52;9.68;;;;;;;25.63;nan;100643.03;5050071;28;20025;-68
2022/08/30 10:28:11;;;;;;;13.07;9.30;;;;;;;25.58;nan;100645.91;5067732;28;20113;-68
2022/08/30 10:30:41;;;;;;;10.50;9.10;;;;;;;25.65;nan;100638.13;5061983;28;20028;-68
2022/08/30 10:33:13;;;;;;;11.70;8.65;;;;;;;25.73;nan;100643.81;5067222;28;20062;-69
2022/08/30 10:35:45;;;;;;;12.35;9.10;;;;;;;25.74;nan;100640.81;5066590;28;20032;-70
2022/08/30 10:38:20;;;;;;;12.23;8.30;;;;;;;25.78;nan;100633.63;5066586;28;20032;-68
2022/08/30 10:44:05;;;;;;;11.82;8.27;;;;;;;25.81;nan;100573.66;5063900;28;20052;-69
2022/08/30 10:46:30;;;;;;;13.05;8.52;;;;;;;25.83;nan;100627.28;5006997;28;20033;-70
2022/08/30 10:49:00;;;;;;;13.10;8.73;;;;;;;25.81;nan;100613.31;5002446;28;20033;-68
2022/08/30 10:51:45;;;;;;;11.30;8.85;;;;;;;25.86;nan;100619.38;5003482;28;20068;-68
2022/08/30 10:54:35;;;;;;;12.13;8.38;;;;;;;25.93;nan;100618.06;5009045;28;20034;-68
2022/08/30 10:57:01;;;;;;;11.90;8.65;;;;;;;25.95;nan;100675.22;5006498;28;20034;-68
2022/08/30 10:59:27;;;;;;;9.10;7.97;;;;;;;25.98;nan;100658.38;5009412;28;20793;-68
2022/08/30 11:02:05;;;;;;;10.20;8.00;;;;;;;26.01;nan;100625.34;4990350;28;20120;-71
2022/08/30 11:04:54;;;;;;;14.15;8.35;;;;;;;26.05;nan;100623.56;5009130;28;20033;-71
2022/08/30 11:07:33;;;;;;;13.43;7.88;;;;;;;26.09;nan;100659.59;5006975;28;20049;-70
2022/08/30 11:10:17;;;;;;;11.50;8.05;;;;;;;26.21;nan;100626.53;5006460;28;20030;-70
2022/08/30 11:13:02;;;;;;;9.60;7.90;;;;;;;26.31;nan;100639.66;5007888;28;20120;-70
2022/08/30 11:15:33;;;;;;;9.65;7.18;;;;;;;26.40;nan;100669.31;5006857;28;20053;-69
2022/08/30 11:18:09;;;;;;;11.48;7.85;;;;;;;26.43;nan;100628.16;5008023;28;20502;-70
2022/08/30 11:20:41;;;;;;;16.42;7.93;;;;;;;26.47;nan;100618.31;5007169;28;20033;-70
2022/08/30 11:23:29;;;;;;;12.02;6.10;;;;;;;26.57;nan;100617.16;5036664;28;20036;-69
2022/08/30 11:25:56;;;;;;;8.73;6.05;;;;;;;26.59;nan;100614.91;5062872;28;20027;-68
2022/08/30 11:28:34;;;;;;;9.07;7.22;;;;;;;26.63;nan;100599.66;5062069;28;20021;-69
2022/08/30 11:31:21;;;;;;;13.38;6.32;;;;;;;26.68;nan;100602.16;5048117;28;20078;-69
2022/08/30 11:33:48;;;;;;;11.50;7.30;;;;;;;26.76;nan;100604.00;5050159;28;20108;-68
2022/08/30 11:36:29;;;;;;;9.18;7.15;;;;;;;26.82;nan;100607.31;5055464;28;20021;-68
2022/08/30 11:38:54;;;;;;;8.32;6.40;;;;;;;26.86;nan;100606.28;5066215;28;20394;-70
2022/08/30 11:41:45;;;;;;;10.50;6.22;;;;;;;26.94;nan;100602.75;5069003;28;20016;-68
2022/08/30 11:44:26;;;;;;;8.60;6.55;;;;;;;26.98;nan;100634.50;5042702;28;20031;-69
2022/08/30 11:46:54;;;;;;;8.52;5.95;;;;;;;27.08;nan;100642.22;5063458;28;20525;-68
2022/08/30 11:49:45;;;;;;;11.53;6.83;;;;;;;27.22;nan;100598.72;5044916;28;20032;-68